Flight Track Log - Related Links

Times and Time Zones

All times are in EDT time to prevent confusion due to time zone crossing. See the N762NC flight status page for this flight to view local times or setup timezone preferences in your user account.

Time Position Orientation Groundspeed Altitude Reporting Facility
EDT Latitude Longitude Course Direction KTS MPH feet Rate Location/Type
Thu 08:39:43 AM 33.4564 -82.0294 299° West 221 254 3,400  Level Atlanta Center
Thu 08:40:43 AM 33.4450 -82.1069 260° West 196 226 5,100 2,250 Climbing Atlanta Center
Thu 08:41:00 AM 33.4110 -82.3151 239° Southwest  Level Estimated
Thu 08:41:43 AM 33.4339 -82.1942 261° West 223 257 7,900  Level Atlanta Center
Thu 08:42:00 AM 33.4831 -82.3347 347° North  Level FlightAware Approximate
Thu 08:42:43 AM 33.4247 -82.2817 263° West 252 290 10,200  Level Atlanta Center
Thu 08:43:00 AM 33.4902 -82.4229 242° Southwest  Level Estimated
Thu 08:43:43 AM 33.4033 -82.3889 257° West 309 356 11,600  Level Atlanta Center
Thu 08:44:00 AM 33.5259 -82.5005 299° West  Level FlightAware Approximate
Thu 08:44:43 AM 33.3961 -82.4911 265° West 316 364 14,000  Level Atlanta Center
Thu 08:45:43 AM 33.3747 -82.6133 258° West 327 376 16,000 2,100 Climbing Atlanta Center
Thu 08:46:43 AM 33.3572 -82.7231 259° West 339 390 18,200 1,900 Climbing Atlanta Center
Thu 08:47:43 AM 33.3375 -82.8378 258° West 346 398 19,800 1,650 Climbing Atlanta Center
Thu 08:48:43 AM 33.3178 -82.9525 258° West 357 411 21,500 1,100 Climbing Atlanta Center
Thu 08:49:43 AM 33.2936 -83.0744 257° West 367 422 22,000 250 Climbing Atlanta Center
Thu 08:50:43 AM 33.2758 -83.1989 260° West 380 437 22,000 -1,400 Level Atlanta Center
Thu 08:51:43 AM 33.2558 -83.3233 259° West 385 443 19,200 -3,000 Descending Atlanta Center
Thu 08:52:43 AM 33.2417 -83.4478 262° West 390 449 16,000 -3,050 Descending Atlanta Center
Thu 08:53:43 AM 33.2278 -83.5719 262° West 390 449 13,100 -2,000 Descending Atlanta Center
Thu 08:54:43 AM 33.2175 -83.6764 263° West 374 430 12,000 -550 Descending Atlanta Center
Thu 08:55:43 AM 33.2075 -83.7906 264° West 359 413 12,000 -150 Level Atlanta Center
Thu 08:56:43 AM 33.2722 -83.8822 310° West 336 387 11,700 -750 Descending Atlanta Center
Thu 08:57:43 AM 33.3539 -83.9369 331° Northwest 320 368 10,500 -1,050 Descending Atlanta Center
Thu 08:58:43 AM 33.4414 -83.9317 North 307 353 9,600 -700 Descending Atlanta Center
Thu 08:59:43 AM 33.5144 -83.9342 358° North 280 322 9,100 -950 Descending Atlanta Center
Thu 09:00:43 AM 33.5833 -83.9392 357° North 245 282 7,700 -1,050 Descending Atlanta Center
Thu 09:01:43 AM 33.6314 -83.9964 315° West 213 245 7,000 -550 Descending Atlanta Center
Thu 09:02:43 AM 33.6294 -84.0661 268° West 188 216 6,600 -769 Descending Atlanta Center
Thu 09:04:19 AM 33.6333 -84.1667 273° West 180 207 5,000 -962 Descending Atlanta TRACON
Thu 09:05:19 AM 33.6333 -84.2167 270° West 171 197 4,100 -900 Descending Atlanta TRACON
Thu 09:06:19 AM 33.6333 -84.2833 270° West 173 199 3,200 -900 Descending Atlanta TRACON
Thu 09:07:19 AM 33.6333 -84.3333 270° West 164 189 2,300 -800 Descending Atlanta TRACON
Thu 09:08:19 AM 33.6333 -84.3833 270° West 127 146 1,600 -700 Descending Atlanta TRACON

Login

Don't have an account? Register now (free) for customized features, flight alerts, and more!